Time;durP1;ratioP1;P1;durP2;ratioP2;P2;SDS_P1;SDS_P2;PMS_P1;PMS_P2;Temp;Humidity;BMP_temperature;BMP_pressure;BME280_temperature;BME280_humidity;BME280_pressure;Samples;Min_cycle;Max_cycle;Signal;HPM_P1;HPM_P2
2021/09/17 00:01:10;;;;;;;;;11.75;11.75;;;;;20.12;58.40;101381.81;6339577;22;45998;-70
2021/09/17 00:03:35;;;;;;;;;13.25;13.25;;;;;20.19;58.18;101399.41;6341181;22;45282;-70
2021/09/17 00:06:01;;;;;;;;;14.00;11.50;;;;;20.18;58.30;101394.97;6339728;22;45192;-70
2021/09/17 00:08:26;;;;;;;;;13.00;11.25;;;;;20.04;58.52;101376.00;6341704;22;45363;-70
2021/09/17 00:10:52;;;;;;;;;13.25;12.00;;;;;20.14;58.32;101382.56;6341472;22;45337;-70
2021/09/17 00:13:17;;;;;;;;;15.25;12.75;;;;;20.34;58.51;101416.56;6341642;22;45250;-70
2021/09/17 00:15:43;;;;;;;;;11.25;11.00;;;;;20.06;58.25;101369.50;6341045;22;45417;-70
2021/09/17 00:18:08;;;;;;;;;13.50;12.50;;;;;20.15;58.63;101385.19;6341853;22;45275;-70
2021/09/17 00:20:35;;;;;;;;;12.50;10.75;;;;;20.20;58.72;101398.47;6339375;22;45274;-70
2021/09/17 00:23:00;;;;;;;;;12.00;10.75;;;;;20.07;58.91;101370.38;6341184;22;45399;-70
2021/09/17 00:25:26;;;;;;;;;14.00;11.25;;;;;19.98;58.50;101345.59;6341840;22;45100;-70
2021/09/17 00:27:52;;;;;;;;;13.00;12.25;;;;;20.21;59.00;101389.34;6339719;22;45677;-70
2021/09/17 00:30:18;;;;;;;;;13.50;13.00;;;;;20.24;59.04;101386.44;6339821;22;45436;-70
2021/09/17 00:32:44;;;;;;;;;14.00;14.00;;;;;20.01;58.54;101360.78;6341320;22;45298;-70
2021/09/17 00:35:10;;;;;;;;;13.25;12.50;;;;;20.06;58.63;101365.91;6341950;22;45323;-70
2021/09/17 00:37:35;;;;;;;;;17.25;16.00;;;;;20.21;58.85;101400.19;6341805;22;45246;-70
2021/09/17 00:40:01;;;;;;;;;15.00;13.75;;;;;20.17;58.84;101393.22;6341527;22;45289;-70
2021/09/17 00:42:26;;;;;;;;;15.50;15.50;;;;;20.10;59.25;101381.03;6341600;22;46188;-70
2021/09/17 00:44:52;;;;;;;;;13.00;12.50;;;;;20.00;58.87;101369.91;6341836;22;45237;-70
2021/09/17 00:47:17;;;;;;;;;13.25;13.25;;;;;20.18;58.65;101394.97;6341121;22;45494;-70
2021/09/17 00:49:43;;;;;;;;;15.75;14.00;;;;;20.13;59.22;101384.41;6341717;22;45187;-70
2021/09/17 00:52:09;;;;;;;;;11.50;11.50;;;;;19.91;59.12;101348.78;6366185;22;47272;-70
2021/09/17 00:54:34;;;;;;;;;15.00;13.25;;;;;19.97;59.06;101354.69;6341670;22;45172;-70
2021/09/17 00:57:02;;;;;;;;;13.25;12.00;;;;;19.89;59.24;101348.00;6341914;22;45142;-70
2021/09/17 00:59:27;;;;;;;;;13.50;13.50;;;;;19.82;59.07;101328.56;6340969;22;45104;-70
2021/09/17 01:01:53;;;;;;;;;15.00;12.50;;;;;20.10;58.99;101372.91;6341322;22;46414;-70
2021/09/17 01:04:19;;;;;;;;;12.75;12.00;;;;;19.94;59.34;101346.75;6341534;22;45362;-70
2021/09/17 01:06:48;;;;;;;;;14.25;14.25;;;;;20.10;59.11;101375.63;6339762;22;45196;-70
2021/09/17 01:09:14;;;;;;;;;13.75;12.00;;;;;19.87;59.67;101331.84;6341196;22;45138;-70
2021/09/17 01:11:39;;;;;;;;;13.75;12.75;;;;;19.85;59.19;101328.38;6341335;22;45759;-70
2021/09/17 01:14:05;;;;;;;;;14.00;13.25;;;;;19.87;59.72;101336.41;6341402;22;45239;-70
2021/09/17 01:16:31;;;;;;;;;14.25;13.25;;;;;19.91;59.46;101341.53;6340759;22;45467;-70
2021/09/17 01:18:57;;;;;;;;;14.00;13.25;;;;;19.85;59.25;101325.66;6340501;22;45187;-70
2021/09/17 01:21:23;;;;;;;;;13.00;12.00;;;;;20.04;59.53;101366.00;6341343;22;46218;-70
2021/09/17 01:23:49;;;;;;;;;12.00;11.00;;;;;19.87;59.13;101339.09;6341510;22;45495;-70
2021/09/17 01:26:15;;;;;;;;;12.50;12.50;;;;;19.80;59.57;101328.66;6341597;22;45351;-70
2021/09/17 01:28:41;;;;;;;;;14.00;14.00;;;;;19.88;59.56;101333.59;6341268;22;45359;-70
2021/09/17 01:31:07;;;;;;;;;11.25;11.25;;;;;19.68;59.63;101306.81;6339005;22;48376;-70
2021/09/17 01:33:33;;;;;;;;;6.75;6.75;;;;;19.71;59.57;101309.34;6341610;22;45475;-70
2021/09/17 01:36:05;;;;;;;;;14.00;12.50;;;;;19.77;59.94;101319.84;6341520;22;45466;-70
2021/09/17 01:38:32;;;;;;;;;12.25;11.25;;;;;19.80;59.57;101322.38;6339069;22;45992;-70
2021/09/17 01:40:59;;;;;;;;;11.00;11.00;;;;;19.78;59.57;101317.03;6341072;22;46436;-70
2021/09/17 01:43:25;;;;;;;;;11.50;11.25;;;;;19.87;59.62;101331.84;6339016;22;45406;-70
2021/09/17 01:45:51;;;;;;;;;10.50;10.50;;;;;19.84;59.68;101329.31;6340403;22;45354;-70
2021/09/17 01:48:17;;;;;;;;;13.75;12.75;;;;;19.61;59.42;101288.25;6341179;22;45211;-70
2021/09/17 01:50:42;;;;;;;;;12.00;12.00;;;;;19.70;59.67;101303.06;6341093;22;46182;-70
2021/09/17 01:53:08;;;;;;;;;13.25;11.75;;;;;19.83;59.93;101326.69;6341198;22;45384;-70
2021/09/17 01:55:34;;;;;;;;;13.25;12.50;;;;;19.69;60.11;101301.31;6341327;22;45235;-70
2021/09/17 01:57:59;;;;;;;;;12.50;11.00;;;;;19.66;60.11;101301.50;6338938;22;45655;-70
2021/09/17 02:00:25;;;;;;;;;12.00;12.00;;;;;19.73;59.90;101312.81;6338705;22;47149;-70
2021/09/17 02:02:50;;;;;;;;;11.00;11.00;;;;;19.78;59.75;101313.47;6341171;22;45346;-70
2021/09/17 02:05:17;;;;;;;;;9.50;9.50;;;;;19.55;60.06;101276.94;6341541;22;45373;-70
2021/09/17 02:07:43;;;;;;;;;11.25;11.25;;;;;19.80;59.75;101317.81;6341187;22;45499;-70
2021/09/17 02:10:09;;;;;;;;;12.50;12.50;;;;;19.43;59.87;101255.06;6340328;22;45189;-70
2021/09/17 02:12:35;;;;;;;;;12.50;12.50;;;;;19.63;59.70;101293.59;6341182;22;45097;-70
2021/09/17 02:15:00;;;;;;;;;11.00;8.75;;;;;19.57;59.98;101281.28;6341173;22;45150;-70
2021/09/17 02:17:26;;;;;;;;;12.50;11.50;;;;;19.79;59.99;101312.47;6340148;22;45145;-70
2021/09/17 02:19:52;;;;;;;;;12.25;11.50;;;;;19.44;59.97;101254.13;6340484;22;45236;-70
2021/09/17 02:22:17;;;;;;;;;12.00;9.25;;;;;19.55;60.05;101272.38;6340999;22;45211;-70
2021/09/17 02:24:43;;;;;;;;;10.00;9.00;;;;;19.52;60.17;101269.00;6338950;22;45397;-70
2021/09/17 02:27:08;;;;;;;;;11.75;11.75;;;;;19.56;60.31;101278.66;6341433;22;45399;-70
2021/09/17 02:29:34;;;;;;;;;13.25;12.00;;;;;19.74;59.93;101303.75;6341821;22;45322;-70
2021/09/17 02:31:59;;;;;;;;;13.25;13.25;;;;;19.48;60.21;101260.19;6341841;22;45251;-70
2021/09/17 02:34:25;;;;;;;;;14.75;13.00;;;;;19.47;60.32;101261.16;6342297;22;45375;-70
2021/09/17 02:36:50;;;;;;;;;11.50;11.50;;;;;19.53;60.43;101268.00;6342137;22;45299;-70
2021/09/17 02:39:16;;;;;;;;;13.25;12.00;;;;;19.51;60.11;101270.84;6341782;22;45431;-70
2021/09/17 02:41:43;;;;;;;;;13.75;12.50;;;;;19.69;60.43;101306.72;6340359;22;45425;-70
2021/09/17 02:44:09;;;;;;;;;15.00;13.75;;;;;19.39;60.30;101260.75;6342276;22;45182;-70
2021/09/17 02:46:34;;;;;;;;;15.50;12.75;;;;;19.50;60.37;101269.09;6341476;22;45153;-70
2021/09/17 02:49:00;;;;;;;;;11.75;11.25;;;;;19.64;60.30;101306.16;6341503;22;45455;-70
2021/09/17 02:51:26;;;;;;;;;14.50;12.00;;;;;19.66;60.58;101290.66;6342445;22;45257;-70
2021/09/17 02:53:51;;;;;;;;;16.25;14.75;;;;;19.27;60.10;101224.47;6340308;22;45232;-70
2021/09/17 02:56:17;;;;;;;;;13.25;13.25;;;;;19.56;60.55;101279.56;6340040;22;45354;-70
2021/09/17 02:58:42;;;;;;;;;15.50;15.00;;;;;19.41;60.47;101253.41;6341438;22;45251;-70
2021/09/17 03:01:08;;;;;;;;;17.00;15.25;;;;;19.28;60.12;101230.75;6366302;22;45219;-70
2021/09/17 03:03:33;;;;;;;;;13.75;13.25;;;;;19.42;60.29;101245.19;6340293;22;45399;-70
2021/09/17 03:05:59;;;;;;;;;17.25;15.50;;;;;19.44;60.90;101258.63;6342054;22;45445;-70
2021/09/17 03:08:24;;;;;;;;;15.00;15.00;;;;;19.44;60.44;101253.22;6341826;22;45521;-70
2021/09/17 03:10:52;;;;;;;;;11.25;11.25;;;;;19.62;61.02;101281.88;6341337;22;45320;-70
2021/09/17 03:13:17;;;;;;;;;14.50;14.00;;;;;19.54;60.55;101265.22;6342086;22;45427;-70
2021/09/17 03:15:43;;;;;;;;;15.00;12.25;;;;;19.41;61.02;101246.19;6341364;22;45413;-70
2021/09/17 03:18:08;;;;;;;;;13.00;11.50;;;;;19.40;60.95;101236.28;6341625;22;46358;-70
2021/09/17 03:20:34;;;;;;;;;14.25;12.50;;;;;19.36;60.57;101223.94;6342241;22;45175;-69
2021/09/17 03:23:00;;;;;;;;;11.25;11.25;;;;;19.43;60.27;101240.66;6342169;22;45236;-70
2021/09/17 03:25:26;;;;;;;;;13.00;13.00;;;;;19.23;60.76;101198.59;6341890;22;45269;-70
2021/09/17 03:27:51;;;;;;;;;17.25;15.75;;;;;19.40;60.58;101230.03;6339723;22;45600;-70
2021/09/17 03:30:17;;;;;;;;;12.00;11.25;;;;;19.54;60.77;101248.97;6341983;22;45177;-70
2021/09/17 03:32:42;;;;;;;;;14.75;14.25;;;;;19.35;60.87;101222.19;6341874;22;45152;-70
2021/09/17 03:35:08;;;;;;;;;11.75;11.75;;;;;19.37;60.67;101216.66;6342250;22;45555;-70
2021/09/17 03:37:33;;;;;;;;;13.75;12.75;;;;;19.32;60.68;101221.50;6341955;22;45928;-70
2021/09/17 03:39:59;;;;;;;;;12.25;12.25;;;;;19.49;60.48;101242.09;6341408;22;45258;-70
2021/09/17 03:42:24;;;;;;;;;14.25;11.25;;;;;19.37;60.57;101235.63;6339896;22;45321;-70
2021/09/17 03:44:50;;;;;;;;;14.00;12.50;;;;;19.18;60.63;101206.97;6341348;22;45325;-70
2021/09/17 03:47:15;;;;;;;;;16.25;16.25;;;;;19.33;60.69;101232.25;6340924;22;45674;-70
2021/09/17 03:49:41;;;;;;;;;15.25;14.00;;;;;19.38;60.60;101237.38;6341455;22;45509;-70
2021/09/17 03:52:06;;;;;;;;;15.00;14.25;;;;;19.27;60.31;101227.19;6342053;22;45331;-70
2021/09/17 03:54:31;;;;;;;;;15.50;15.50;;;;;19.25;60.75;101224.56;6341454;22;45391;-70
2021/09/17 03:56:59;;;;;;;;;15.25;15.25;;;;;19.43;60.36;101251.50;6341801;22;45235;-70
2021/09/17 03:59:25;;;;;;;;;12.50;12.50;;;;;19.48;60.81;101260.19;6341476;22;45226;-70
2021/09/17 04:01:50;;;;;;;;;13.00;12.00;;;;;19.42;60.56;101255.16;6341775;22;45158;-70
2021/09/17 04:04:16;;;;;;;;;14.75;14.00;;;;;19.47;60.90;101263.00;6342105;22;45146;-70
2021/09/17 04:06:43;;;;;;;;;13.50;13.50;;;;;19.18;60.95;101217.81;6341848;22;45303;-70
2021/09/17 04:09:10;;;;;;;;;15.75;15.75;;;;;19.24;60.69;101233.69;6341241;22;45439;-70
2021/09/17 04:11:35;;;;;;;;;16.25;16.25;;;;;19.19;60.65;101227.66;6341965;22;45270;-69
2021/09/17 04:14:01;;;;;;;;;17.75;16.50;;;;;19.08;60.81;101203.09;6341827;22;45247;-70
2021/09/17 04:16:26;;;;;;;;;13.25;13.25;;;;;19.15;60.51;101217.97;6340657;22;45344;-70
2021/09/17 04:18:52;;;;;;;;;14.75;14.25;;;;;19.14;60.91;101223.50;6339310;22;45245;-70
2021/09/17 04:21:17;;;;;;;;;13.75;13.75;;;;;19.20;60.62;101234.81;6339887;22;45203;-70
2021/09/17 04:23:42;;;;;;;;;14.00;14.00;;;;;19.21;60.68;101243.78;6341462;22;45508;-70
2021/09/17 04:26:08;;;;;;;;;16.75;15.00;;;;;19.15;60.73;101231.50;6341564;22;45280;-69
2021/09/17 04:28:33;;;;;;;;;17.75;15.50;;;;;19.12;60.93;101220.88;6341663;22;45250;-70
2021/09/17 04:30:59;;;;;;;;;14.75;14.00;;;;;19.04;60.92;101218.66;6341153;22;45541;-70
2021/09/17 04:33:24;;;;;;;;;13.75;13.75;;;;;19.31;60.95;101266.66;6341822;22;45116;-69
2021/09/17 04:35:49;;;;;;;;;15.00;12.75;;;;;19.25;61.23;101254.34;6341774;22;45411;-70
2021/09/17 04:38:15;;;;;;;;;13.50;13.50;;;;;19.11;61.05;101227.28;6341314;22;45264;-70
2021/09/17 04:40:41;;;;;;;;;12.00;12.00;;;;;19.11;60.89;101229.97;6341757;22;45221;-70
2021/09/17 04:43:07;;;;;;;;;17.33;16.67;;;;;19.04;61.16;101223.16;6341469;22;45514;-70
2021/09/17 04:45:32;;;;;;;;;15.75;14.00;;;;;19.10;60.70;101233.63;6341069;22;46239;-70
2021/09/17 04:47:58;;;;;;;;;14.50;14.50;;;;;19.17;60.89;101247.66;6339500;22;45244;-70
2021/09/17 04:50:23;;;;;;;;;20.00;14.50;;;;;19.02;61.01;101222.41;6341406;22;45233;-70
2021/09/17 04:52:51;;;;;;;;;13.25;13.00;;;;;19.08;60.67;101235.56;6341555;22;45552;-69
2021/09/17 04:55:17;;;;;;;;;16.75;16.00;;;;;18.86;61.25;101193.56;6341835;22;45351;-69
2021/09/17 04:57:42;;;;;;;;;14.25;14.00;;;;;19.04;61.30;101234.00;6339570;22;45564;-69
2021/09/17 05:00:08;;;;;;;;;11.75;11.75;;;;;19.11;61.08;101234.50;6340436;22;45434;-69
2021/09/17 05:02:33;;;;;;;;;14.25;14.25;;;;;18.99;60.96;101212.63;6340950;22;45112;-69
2021/09/17 05:04:59;;;;;;;;;15.25;15.25;;;;;18.94;61.34;101211.16;6341432;22;45275;-70
2021/09/17 05:07:24;;;;;;;;;11.75;11.25;;;;;18.94;60.81;101216.56;6341179;22;45163;-70
2021/09/17 05:09:49;;;;;;;;;13.50;13.00;;;;;18.96;60.92;101217.34;6340627;22;45407;-69
2021/09/17 05:12:15;;;;;;;;;16.00;15.00;;;;;18.99;61.13;101228.00;6339482;22;45247;-70
2021/09/17 05:14:40;;;;;;;;;12.50;11.00;;;;;18.93;61.02;101221.13;6341262;22;45477;-70
2021/09/17 05:17:05;;;;;;;;;16.75;16.75;;;;;18.92;61.44;101215.81;6341335;22;45159;-70
2021/09/17 05:19:33;;;;;;;;;18.00;16.50;;;;;18.87;61.01;101208.81;6341558;22;45681;-70
2021/09/17 05:21:58;;;;;;;;;16.75;15.00;;;;;19.10;61.50;101239.03;6340613;22;45450;-70
2021/09/17 05:24:26;;;;;;;;;10.00;8.75;;;;;19.09;61.12;101253.53;6339233;22;46943;-70
2021/09/17 05:26:52;;;;;;;;;17.75;15.00;;;;;18.80;61.50;101203.84;6341423;22;45396;-70
2021/09/17 05:29:17;;;;;;;;;14.00;13.75;;;;;18.80;61.14;101202.00;6340623;22;45338;-70
2021/09/17 05:31:43;;;;;;;;;16.75;14.75;;;;;19.03;61.09;101241.25;6339009;22;45246;-70
2021/09/17 05:34:13;;;;;;;;;14.25;14.25;;;;;19.11;61.38;101251.63;6341429;22;45872;-69
2021/09/17 05:36:39;;;;;;;;;13.00;13.00;;;;;18.79;61.12;101200.25;6339041;22;45826;-70
2021/09/17 05:39:04;;;;;;;;;13.00;13.00;;;;;18.85;61.14;101204.47;6339211;22;45422;-70
2021/09/17 05:41:30;;;;;;;;;15.75;12.00;;;;;18.90;61.29;101217.75;6339004;22;45452;-70
2021/09/17 05:43:55;;;;;;;;;9.75;9.50;;;;;18.86;61.49;101215.22;6338405;22;48066;-70
2021/09/17 05:46:21;;;;;;;;;19.75;18.25;;;;;19.02;61.13;101244.91;6340905;22;45415;-67
2021/09/17 05:48:48;;;;;;;;;18.00;15.50;;;;;18.86;61.18;101214.31;6341152;22;45239;-70
2021/09/17 05:51:14;;;;;;;;;17.75;16.50;;;;;18.86;61.33;101219.72;6338696;22;45270;-71
2021/09/17 05:53:40;;;;;;;;;16.50;15.25;;;;;18.90;61.67;101218.59;6339173;22;46113;-70
2021/09/17 05:56:06;;;;;;;;;16.25;15.50;;;;;18.78;61.66;101206.66;6341156;22;45183;-72
2021/09/17 05:58:32;;;;;;;;;15.00;13.50;;;;;18.99;61.37;101230.69;6340943;22;45249;-72
2021/09/17 06:01:01;;;;;;;;;14.25;13.25;;;;;18.87;61.87;101214.22;6340356;22;45073;-72
2021/09/17 06:03:26;;;;;;;;;18.50;17.25;;;;;18.83;61.65;101212.69;6338602;22;47502;-72
2021/09/17 06:05:52;;;;;;;;;15.00;15.00;;;;;18.91;61.46;101223.06;6341207;22;45392;-72
2021/09/17 06:08:18;;;;;;;;;18.00;16.25;;;;;18.97;61.66;101238.03;6341223;22;45367;-71
2021/09/17 06:10:44;;;;;;;;;18.75;16.75;;;;;18.92;61.63;101226.63;6340613;22;45169;-71
2021/09/17 06:13:09;;;;;;;;;15.50;15.50;;;;;18.73;61.14;101191.63;6338933;22;48119;-71
2021/09/17 06:15:44;;;;;;;;;17.75;17.75;;;;;18.95;61.56;101232.72;6340725;22;45272;-71
2021/09/17 06:18:10;;;;;;;;;17.75;17.50;;;;;18.75;61.52;101196.00;6341010;22;45235;-71
2021/09/17 06:20:35;;;;;;;;;14.50;14.50;;;;;18.87;61.73;101222.34;6339050;22;45500;-71
2021/09/17 06:23:03;;;;;;;;;16.25;15.50;;;;;18.82;61.66;101208.19;6338858;22;47310;-71
2021/09/17 06:25:29;;;;;;;;;19.00;17.75;;;;;18.76;61.41;101199.56;6340405;22;45333;-73
2021/09/17 06:27:54;;;;;;;;;22.25;16.75;;;;;18.80;61.53;101210.13;6340905;22;45569;-72
2021/09/17 06:30:23;;;;;;;;;15.75;15.75;;;;;18.86;61.44;101222.44;6340769;22;45308;-71
2021/09/17 06:32:51;;;;;;;;;12.50;12.50;;;;;18.86;61.78;101217.91;6340653;22;45311;-71
2021/09/17 06:35:16;;;;;;;;;17.25;16.00;;;;;18.89;62.08;101219.56;6340748;22;45387;-71
2021/09/17 06:37:47;;;;;;;;;18.50;18.25;;;;;18.81;61.67;101203.75;6338721;22;45169;-71
2021/09/17 06:40:13;;;;;;;;;15.75;15.75;;;;;18.90;62.16;101215.03;6340603;22;45464;-72
2021/09/17 06:42:39;;;;;;;;;17.50;16.75;;;;;18.86;61.83;101222.44;6340669;22;45917;-71
2021/09/17 06:45:06;;;;;;;;;19.25;16.25;;;;;18.96;61.95;101225.47;6340495;22;45220;-70
2021/09/17 06:47:36;;;;;;;;;17.75;17.00;;;;;18.73;62.10;101184.41;6340848;22;45185;-70
2021/09/17 06:50:04;;;;;;;;;24.00;19.75;;;;;18.98;61.96;101229.84;6340773;22;45363;-70
2021/09/17 06:52:30;;;;;;;;;19.75;18.25;;;;;18.84;62.32;101206.31;6365223;22;47498;-71
2021/09/17 06:54:57;;;;;;;;;18.25;16.25;;;;;18.92;61.91;101226.63;6338642;22;45309;-71
2021/09/17 06:57:25;;;;;;;;;21.25;18.50;;;;;18.67;62.13;101182.94;6338633;22;45191;-71
2021/09/17 06:59:53;;;;;;;;;21.00;21.00;;;;;18.68;62.39;101184.69;6340056;22;45175;-71
2021/09/17 07:02:23;;;;;;;;;18.75;16.50;;;;;18.90;62.40;101213.19;6340092;22;46058;-71
2021/09/17 07:04:49;;;;;;;;;21.50;18.50;;;;;18.75;62.23;101185.19;6340329;22;45383;-70
2021/09/17 07:07:16;;;;;;;;;17.25;16.75;;;;;18.84;62.42;101203.63;6357164;22;45290;-70
2021/09/17 07:09:42;;;;;;;;;17.50;17.50;;;;;18.88;62.18;101218.69;6336828;22;45283;-70
2021/09/17 07:12:11;;;;;;;;;21.50;19.25;;;;;18.94;62.36;101216.56;6364091;22;47685;-71
2021/09/17 07:14:37;;;;;;;;;27.25;23.75;;;;;18.96;62.68;101225.47;6338879;22;45565;-70
2021/09/17 07:17:03;;;;;;;;;22.25;19.25;;;;;18.82;62.76;101208.19;6338961;22;45363;-70
2021/09/17 07:19:28;;;;;;;;;18.50;16.25;;;;;18.83;62.28;101198.31;6338841;22;45263;-70
2021/09/17 07:22:01;;;;;;;;;8.50;6.50;;;;;18.75;62.52;101184.34;6340725;22;45390;-70
2021/09/17 07:24:26;;;;;;;;;19.75;19.75;;;;;18.79;62.96;101188.59;6341074;22;45563;-70
2021/09/17 07:27:02;;;;;;;;;16.50;16.00;;;;;18.78;62.61;101189.56;6339636;22;45355;-70
2021/09/17 07:29:27;;;;;;;;;17.00;16.25;;;;;18.66;62.42;101181.22;6340583;22;45212;-70
2021/09/17 07:31:53;;;;;;;;;21.25;18.25;;;;;18.63;62.45;101167.88;6338855;22;46801;-70
2021/09/17 07:34:18;;;;;;;;;16.75;15.00;;;;;18.64;62.21;101172.31;6339505;22;45188;-70
2021/09/17 07:36:44;;;;;;;;;21.25;18.00;;;;;18.82;62.43;101196.50;6339802;22;45381;-70
2021/09/17 07:39:10;;;;;;;;;21.50;19.25;;;;;18.94;62.19;101205.75;6365743;22;45478;-70
2021/09/17 07:41:39;;;;;;;;;18.25;18.25;;;;;18.82;62.41;101194.66;6336787;22;46175;-70
2021/09/17 07:44:04;;;;;;;;;17.25;15.25;;;;;19.02;62.42;101219.69;6335220;22;45507;-70
2021/09/17 07:46:30;;;;;;;;;18.75;17.75;;;;;19.03;62.29;101226.84;6339132;22;45455;-69
2021/09/17 07:48:56;;;;;;;;;16.25;16.25;;;;;18.85;62.74;101210.75;6364799;22;45494;-69
2021/09/17 07:51:22;;;;;;;;;16.50;16.00;;;;;18.99;62.30;101231.56;6338153;22;47356;-70
2021/09/17 07:53:48;;;;;;;;;18.00;16.00;;;;;18.83;62.48;101206.41;6339270;22;45360;-70
2021/09/17 07:56:16;;;;;;;;;20.50;17.75;;;;;18.95;62.92;101224.59;6338283;22;45299;-70
2021/09/17 07:58:41;;;;;;;;;19.25;17.50;;;;;19.05;62.36;101224.94;6338722;22;45500;-70
2021/09/17 08:01:07;;;;;;;;;20.00;20.00;;;;;18.87;62.41;101198.00;6338733;22;46579;-70
2021/09/17 08:03:33;;;;;;;;;16.50;16.25;;;;;18.86;62.38;101196.28;6338825;22;45315;-70
2021/09/17 08:06:01;;;;;;;;;18.50;17.25;;;;;19.07;62.29;101228.41;6338921;22;45636;-70
2021/09/17 08:08:28;;;;;;;;;18.25;18.25;;;;;19.00;62.41;101208.97;6337340;22;45265;-70
2021/09/17 08:10:54;;;;;;;;;19.75;18.00;;;;;18.99;62.46;101200.94;6339593;22;45982;-70
2021/09/17 08:13:21;;;;;;;;;15.25;13.25;;;;;19.00;62.10;101205.41;6365083;22;45544;-70
2021/09/17 08:15:46;;;;;;;;;21.75;18.75;;;;;19.22;62.52;101229.31;6338803;22;45436;-70
2021/09/17 08:18:12;;;;;;;;;16.25;15.00;;;;;19.03;62.73;101195.25;6340385;22;45471;-70
2021/09/17 08:20:45;;;;;;;;;20.00;19.00;;;;;19.08;62.99;101200.41;6341024;22;46276;-70
2021/09/17 08:23:11;;;;;;;;;19.00;17.25;;;;;19.27;62.36;101213.66;6365814;22;45575;-70
2021/09/17 08:25:36;;;;;;;;;16.75;15.75;;;;;19.16;62.31;101194.50;6365384;22;45405;-70
2021/09/17 08:28:02;;;;;;;;;11.75;11.00;;;;;19.14;61.93;101180.19;6338949;22;45386;-70
2021/09/17 08:30:27;;;;;;;;;12.25;10.50;;;;;19.25;61.83;101208.34;6341124;22;46108;-70
2021/09/17 08:33:01;;;;;;;;;13.50;12.50;;;;;19.24;61.90;101194.91;6341421;22;45477;-72
2021/09/17 08:35:27;;;;;;;;;13.00;11.50;;;;;19.54;61.91;101243.56;6341372;22;45361;-72
2021/09/17 08:37:52;;;;;;;;;10.75;10.00;;;;;19.40;61.72;101205.66;6339075;22;45500;-73
2021/09/17 08:40:17;;;;;;;;;7.50;7.50;;;;;19.39;61.67;101201.19;6338777;22;47027;-72
2021/09/17 08:42:44;;;;;;;;;11.25;10.75;;;;;19.38;61.53;101184.09;6341566;22;45237;-74
2021/09/17 08:45:09;;;;;;;;;9.25;9.25;;;;;19.53;61.19;101203.03;6341274;22;45099;-68
2021/09/17 08:47:35;;;;;;;;;9.25;7.25;;;;;19.77;60.74;101236.72;6339204;22;45676;-66
2021/09/17 08:50:01;;;;;;;;;9.00;8.75;;;;;19.76;60.28;101231.41;6341277;22;46069;-66
2021/09/17 08:52:26;;;;;;;;;8.75;8.75;;;;;19.83;60.84;101238.19;6341469;22;45139;-67
2021/09/17 08:54:51;;;;;;;;;9.25;8.00;;;;;19.87;60.67;101236.16;6340392;22;45337;-67
2021/09/17 08:57:17;;;;;;;;;5.25;5.25;;;;;19.89;59.93;101235.06;6341682;22;45269;-66
2021/09/17 08:59:43;;;;;;;;;10.00;6.75;;;;;19.90;60.15;101228.72;6340767;22;46022;-66
2021/09/17 09:02:29;;;;;;;;;7.25;7.00;;;;;19.94;59.85;101232.94;6265355;22;45268;-68
2021/09/17 09:05:00;;;;;;;;;8.25;7.75;;;;;19.91;59.80;101213.31;6278742;22;45275;-68
2021/09/17 09:07:46;;;;;;;;;8.50;7.75;;;;;19.94;59.43;101216.69;6278664;22;45202;-67
2021/09/17 09:10:14;;;;;;;;;8.50;7.50;;;;;20.05;59.75;101229.56;6277365;22;45227;-67
2021/09/17 09:12:48;;;;;;;;;8.00;7.00;;;;;20.09;59.60;101222.09;6278241;22;45313;-67
2021/09/17 09:15:18;;;;;;;;;8.75;8.75;;;;;20.14;59.52;101220.81;6278097;22;45314;-67
2021/09/17 09:17:45;;;;;;;;;11.00;9.25;;;;;20.19;58.76;101215.09;6278212;22;45283;-67
2021/09/17 09:20:24;;;;;;;;;9.00;8.00;;;;;20.23;59.79;101221.19;6277902;22;45339;-67
2021/09/17 09:23:04;;;;;;;;;7.25;7.25;;;;;20.27;59.06;101229.03;6277919;22;45379;-67
2021/09/17 09:25:30;;;;;;;;;9.00;8.00;;;;;20.28;58.98;101221.75;6278580;22;45335;-68
2021/09/17 09:28:12;;;;;;;;;10.25;10.25;;;;;20.36;58.68;101220.31;6302117;22;45317;-68
2021/09/17 09:30:39;;;;;;;;;9.75;9.75;;;;;20.36;58.86;101209.47;6277841;22;46150;-67
2021/09/17 09:33:35;;;;;;;;;7.75;7.75;;;;;20.42;58.67;101219.03;6278269;22;45391;-68
2021/09/17 09:36:08;;;;;;;;;6.00;6.00;;;;;20.46;58.30;101219.69;6277087;22;45341;-67
2021/09/17 09:38:52;;;;;;;;;7.00;7.00;;;;;20.51;57.84;101214.81;6278213;22;45239;-68
2021/09/17 09:41:28;;;;;;;;;7.25;6.50;;;;;20.51;57.10;101209.41;6277944;22;45310;-68
2021/09/17 09:43:56;;;;;;;;;5.50;5.25;;;;;20.55;57.71;101219.09;6278219;22;45219;-68
2021/09/17 09:46:36;;;;;;;;;9.25;6.25;;;;;20.56;58.25;101209.94;6278178;22;45187;-68
2021/09/17 09:49:24;;;;;;;;;6.50;6.50;;;;;20.59;57.46;101203.47;6278123;22;45636;-68
2021/09/17 09:52:02;;;;;;;;;10.75;10.00;;;;;20.65;57.42;101217.53;6278238;22;45376;-67
2021/09/17 09:54:30;;;;;;;;;7.25;7.00;;;;;20.71;57.52;101210.78;6278237;22;45511;-68
2021/09/17 09:56:56;;;;;;;;;12.50;11.00;;;;;20.78;57.78;101216.69;6278674;22;45467;-68
2021/09/17 09:59:30;;;;;;;;;9.00;9.00;;;;;20.80;56.94;101202.06;6277853;22;45345;-68
2021/09/17 10:01:58;;;;;;;;;10.75;10.75;;;;;20.83;57.13;101204.56;6275854;22;45300;-67
2021/09/17 10:04:26;;;;;;;;;9.50;8.75;;;;;20.85;57.04;101194.47;6278363;22;45577;-67
2021/09/17 10:07:06;;;;;;;;;10.00;8.75;;;;;20.89;57.17;101195.97;6278454;22;45251;-68
2021/09/17 10:09:33;;;;;;;;;8.25;7.50;;;;;20.89;57.37;101187.84;6277699;22;45449;-67
2021/09/17 10:11:59;;;;;;;;;7.50;7.50;;;;;20.97;57.32;101187.31;6278004;22;46077;-67
2021/09/17 10:14:27;;;;;;;;;8.50;8.25;;;;;21.01;57.17;101196.97;6278474;22;45141;-68
2021/09/17 10:16:54;;;;;;;;;7.75;7.25;;;;;21.07;56.38;101190.28;6277793;22;45250;-68
2021/09/17 10:19:20;;;;;;;;;7.25;7.25;;;;;21.09;56.03;101185.59;6276089;22;45555;-68
2021/09/17 10:21:58;;;;;;;;;7.25;7.00;;;;;21.12;55.82;101176.34;6278064;22;46208;-68
2021/09/17 10:24:26;;;;;;;;;9.25;8.00;;;;;21.14;56.52;101185.28;6277444;22;45623;-68
2021/09/17 10:26:55;;;;;;;;;6.00;6.00;;;;;21.18;56.56;101184.06;6278411;22;45088;-67
2021/09/17 10:29:39;;;;;;;;;8.50;7.25;;;;;21.19;56.29;101164.97;6277519;22;45404;-67
2021/09/17 10:32:08;;;;;;;;;7.00;7.00;;;;;21.23;56.25;101171.03;6277046;22;46312;-68
2021/09/17 10:34:36;;;;;;;;;6.25;5.50;;;;;21.26;55.64;101176.25;6278176;22;45291;-67
2021/09/17 10:37:03;;;;;;;;;6.00;6.00;;;;;21.32;55.71;101175.84;6277905;22;45294;-67
2021/09/17 10:39:28;;;;;;;;;7.00;6.25;;;;;21.38;55.79;101179.94;6277749;22;45560;-67
2021/09/17 10:42:15;;;;;;;;;9.25;9.25;;;;;21.40;55.66;101176.16;6277709;22;46034;-67
2021/09/17 10:44:58;;;;;;;;;8.00;7.25;;;;;21.42;55.16;101176.91;6277575;22;45418;-67
2021/09/17 10:47:56;;;;;;;;;8.75;8.75;;;;;21.45;56.25;101171.28;6278238;22;45277;-67
2021/09/17 10:50:37;;;;;;;;;6.50;6.50;;;;;21.49;55.53;101168.38;6279541;22;45268;-68
2021/09/17 10:53:03;;;;;;;;;6.00;6.00;;;;;21.50;55.43;101170.97;6279381;22;45277;-68
2021/09/17 10:55:43;;;;;;;;;6.00;5.00;;;;;21.51;54.88;101169.97;6279461;22;45167;-67
2021/09/17 10:58:23;;;;;;;;;6.25;6.25;;;;;21.48;53.73;101172.06;6279307;22;45346;-67
2021/09/17 11:01:05;;;;;;;;;6.00;6.00;;;;;21.49;54.33;101163.81;6278589;22;45129;-67
2021/09/17 11:03:39;;;;;;;;;8.00;7.50;;;;;21.53;54.59;101167.16;6279023;22;46040;-68
2021/09/17 11:06:31;;;;;;;;;6.25;6.25;;;;;21.52;54.13;101168.13;6277302;22;45541;-67
2021/09/17 11:08:57;;;;;;;;;9.00;7.00;;;;;21.50;53.67;101162.84;6278180;22;45411;-67
2021/09/17 11:11:38;;;;;;;;;6.00;6.00;;;;;21.49;54.15;101160.22;6278052;22;45366;-69
2021/09/17 11:14:08;;;;;;;;;5.00;5.00;;;;;21.48;54.14;101145.75;6276446;22;47333;-69